Time;durP1;ratioP1;P1;durP2;ratioP2;P2;SDS_P1;SDS_P2;PMS_P1;PMS_P2;Temp;Humidity;BMP_temperature;BMP_pressure;BME280_temperature;BME280_humidity;BME280_pressure;Samples;Min_cycle;Max_cycle;Signal;HPM_P1;HPM_P2
2023/10/17 00:01:15;;;;;;;12.43;6.78;;;7.00;99.90;;;;;;5074211;28;20463;-69
2023/10/17 00:03:45;;;;;;;13.55;6.63;;;6.90;99.90;;;;;;5073645;28;20044;-69
2023/10/17 00:06:16;;;;;;;12.50;6.50;;;7.00;99.90;;;;;;5074342;28;20064;-69
2023/10/17 00:08:43;;;;;;;9.63;5.63;;;6.90;99.90;;;;;;5074109;28;20047;-69
2023/10/17 00:11:21;;;;;;;12.48;6.28;;;6.90;99.90;;;;;;5074830;28;20489;-69
2023/10/17 00:14:02;;;;;;;10.90;6.30;;;6.90;99.90;;;;;;5075246;28;20410;-71
2023/10/17 00:16:32;;;;;;;10.15;5.60;;;6.90;99.90;;;;;;5073599;28;20045;-71
2023/10/17 00:19:05;;;;;;;8.75;6.00;;;6.90;99.90;;;;;;5074039;28;20094;-70
2023/10/17 00:21:32;;;;;;;8.90;5.40;;;7.00;99.90;;;;;;5074216;28;20056;-70
2023/10/17 00:24:02;;;;;;;10.65;5.90;;;7.00;99.90;;;;;;5073513;28;20091;-70
2023/10/17 00:26:30;;;;;;;7.13;5.40;;;7.00;99.90;;;;;;5073838;28;20072;-70
2023/10/17 00:28:57;;;;;;;7.65;5.40;;;7.00;99.90;;;;;;5073870;28;20044;-71
2023/10/17 00:31:24;;;;;;;7.00;5.03;;;7.00;99.90;;;;;;5073120;28;20041;-70
2023/10/17 00:33:57;;;;;;;8.18;4.95;;;7.00;99.90;;;;;;5074770;28;20450;-70
2023/10/17 00:36:26;;;;;;;8.75;5.00;;;7.10;99.90;;;;;;5073679;28;20049;-70
2023/10/17 00:38:54;;;;;;;13.35;5.40;;;7.10;99.90;;;;;;5073057;28;20048;-70
2023/10/17 00:41:29;;;;;;;7.97;4.72;;;7.10;99.90;;;;;;5073352;28;20497;-70
2023/10/17 00:43:58;;;;;;;7.20;5.18;;;7.10;99.90;;;;;;5073593;28;20175;-70
2023/10/17 00:46:25;;;;;;;11.05;5.72;;;7.20;99.90;;;;;;5074236;28;20129;-70
2023/10/17 00:48:56;;;;;;;9.35;4.88;;;7.20;99.90;;;;;;5073217;28;20049;-71
2023/10/17 00:51:25;;;;;;;6.18;4.38;;;7.20;99.90;;;;;;5072216;28;20155;-70
2023/10/17 00:53:52;;;;;;;6.63;4.47;;;7.20;99.90;;;;;;5073628;28;20094;-71
2023/10/17 00:56:20;;;;;;;6.55;4.70;;;7.20;99.90;;;;;;5073165;28;20051;-70
2023/10/17 00:58:47;;;;;;;9.55;4.47;;;7.20;99.90;;;;;;5073806;28;20123;-70
2023/10/17 01:01:16;;;;;;;10.30;5.22;;;7.20;99.90;;;;;;5073250;28;20044;-70
2023/10/17 01:03:45;;;;;;;7.82;4.45;;;7.20;99.90;;;;;;5073167;28;20056;-70
2023/10/17 01:06:37;;;;;;;5.65;4.13;;;7.20;99.90;;;;;;5072735;28;20131;-70
2023/10/17 01:09:17;;;;;;;6.18;4.30;;;7.30;99.90;;;;;;5071594;28;20044;-69
2023/10/17 01:11:45;;;;;;;7.70;5.00;;;7.30;99.90;;;;;;5072804;28;20523;-69
2023/10/17 01:14:18;;;;;;;6.13;4.20;;;7.30;99.90;;;;;;5072488;28;20554;-71
2023/10/17 01:16:46;;;;;;;10.50;4.22;;;7.30;99.90;;;;;;5072752;28;20052;-70
2023/10/17 01:19:15;;;;;;;6.05;3.70;;;7.30;99.90;;;;;;5072028;28;20036;-70
2023/10/17 01:21:42;;;;;;;10.15;4.13;;;7.30;99.90;;;;;;5073604;28;20047;-70
2023/10/17 01:24:11;;;;;;;6.57;3.83;;;7.30;99.90;;;;;;5072687;28;20504;-70
2023/10/17 01:26:38;;;;;;;7.43;3.45;;;7.30;99.90;;;;;;5072294;28;20551;-69
2023/10/17 01:29:10;;;;;;;9.48;3.72;;;7.30;99.90;;;;;;5072736;28;20045;-70
2023/10/17 01:31:42;;;;;;;9.13;3.80;;;7.30;99.90;;;;;;5072889;28;20629;-70
2023/10/17 01:34:10;;;;;;;6.32;3.40;;;7.30;99.90;;;;;;5072138;28;20052;-70
2023/10/17 01:36:37;;;;;;;9.82;3.67;;;7.30;99.90;;;;;;5072419;28;20447;-70
2023/10/17 01:39:06;;;;;;;6.25;4.03;;;7.30;99.90;;;;;;5072544;28;20071;-70
2023/10/17 01:41:35;;;;;;;5.15;3.58;;;7.30;99.90;;;;;;5071858;28;20084;-70
2023/10/17 01:44:02;;;;;;;7.47;3.95;;;7.20;99.90;;;;;;5072224;28;20510;-70
2023/10/17 01:46:29;;;;;;;11.02;4.10;;;7.20;99.90;;;;;;5072159;28;20104;-69
2023/10/17 01:48:59;;;;;;;7.30;3.47;;;7.10;99.90;;;;;;5071713;28;20439;-72
2023/10/17 01:51:28;;;;;;;7.28;4.22;;;7.10;99.90;;;;;;5070501;28;20078;-70
2023/10/17 01:53:55;;;;;;;7.18;4.05;;;7.00;99.90;;;;;;5072335;28;20056;-71
2023/10/17 01:56:26;;;;;;;7.35;3.83;;;7.00;99.90;;;;;;5071692;28;20048;-70
2023/10/17 01:58:59;;;;;;;12.60;3.70;;;7.00;99.90;;;;;;5070069;28;20098;-70
2023/10/17 02:01:26;;;;;;;6.63;3.88;;;7.00;99.90;;;;;;5073003;28;20377;-71
2023/10/17 02:03:53;;;;;;;6.30;3.72;;;6.90;99.90;;;;;;5071019;28;20083;-71
2023/10/17 02:06:23;;;;;;;6.85;3.83;;;6.90;99.90;;;;;;5072080;28;20484;-70
2023/10/17 02:08:50;;;;;;;6.35;3.33;;;6.90;99.90;;;;;;5071491;28;20044;-70
2023/10/17 02:11:24;;;;;;;8.88;4.47;;;6.90;99.90;;;;;;5072054;28;20083;-70
2023/10/17 02:13:56;;;;;;;8.70;4.47;;;7.40;99.90;;;;;;5072010;28;20048;-70
2023/10/17 02:16:23;;;;;;;7.35;4.18;;;6.90;99.90;;;;;;5071183;28;20048;-70
2023/10/17 02:18:50;;;;;;;7.55;4.07;;;6.80;99.90;;;;;;5071965;28;20048;-70
2023/10/17 02:21:18;;;;;;;5.93;3.88;;;6.00;99.90;;;;;;5072087;28;20091;-71
2023/10/17 02:23:49;;;;;;;8.90;4.35;;;6.80;99.90;;;;;;5072215;28;20084;-70
2023/10/17 02:26:21;;;;;;;5.57;4.00;;;6.70;99.90;;;;;;5071563;28;20044;-69
2023/10/17 02:28:53;;;;;;;5.70;3.60;;;6.70;99.90;;;;;;5071639;28;20059;-71
2023/10/17 02:31:27;;;;;;;9.32;4.10;;;6.60;99.90;;;;;;5071257;28;20071;-70
2023/10/17 02:33:54;;;;;;;6.22;3.72;;;6.50;99.90;;;;;;5071617;28;20048;-71
2023/10/17 02:36:21;;;;;;;10.35;4.38;;;6.50;99.90;;;;;;5071522;28;20048;-70
2023/10/17 02:38:49;;;;;;;7.55;3.90;;;6.40;99.90;;;;;;5070926;28;20052;-70
2023/10/17 02:41:19;;;;;;;7.32;3.70;;;6.40;99.90;;;;;;5068949;28;20497;-70
2023/10/17 02:43:46;;;;;;;9.85;4.70;;;6.30;99.90;;;;;;5071855;28;20044;-70
2023/10/17 02:46:14;;;;;;;6.72;4.50;;;6.20;99.90;;;;;;5071255;28;20052;-71
2023/10/17 02:48:45;;;;;;;7.13;4.15;;;6.20;99.90;;;;;;5071146;28;20400;-72
2023/10/17 02:51:33;;;;;;;10.20;4.38;;;6.10;99.90;;;;;;5072006;28;20065;-70
2023/10/17 02:54:01;;;;;;;6.28;4.32;;;6.10;99.90;;;;;;5072970;28;20052;-71
2023/10/17 02:56:28;;;;;;;7.53;5.00;;;6.00;99.90;;;;;;5071492;28;20052;-70
2023/10/17 02:59:06;;;;;;;6.70;4.07;;;5.90;99.90;;;;;;5070753;28;20048;-71
2023/10/17 03:01:34;;;;;;;7.45;4.13;;;5.90;99.90;;;;;;5070362;28;20056;-70
2023/10/17 03:04:07;;;;;;;7.75;4.03;;;5.90;99.90;;;;;;5071040;28;20098;-71
2023/10/17 03:06:37;;;;;;;6.60;4.53;;;5.80;99.90;;;;;;5070829;28;20098;-71
2023/10/17 03:09:16;;;;;;;7.60;4.40;;;5.70;99.90;;;;;;5070981;28;20081;-71
2023/10/17 03:11:50;;;;;;;8.57;4.18;;;5.60;99.90;;;;;;5071104;28;20048;-71
2023/10/17 03:14:22;;;;;;;7.15;4.40;;;5.60;99.90;;;;;;5070929;28;20068;-72
2023/10/17 03:16:52;;;;;;;7.38;4.60;;;5.60;99.90;;;;;;5072262;28;20049;-69
2023/10/17 03:19:25;;;;;;;7.00;4.10;;;5.70;99.90;;;;;;5070575;28;20446;-70
2023/10/17 03:21:54;;;;;;;6.57;4.35;;;5.60;99.90;;;;;;5071003;28;20219;-71
2023/10/17 03:24:28;;;;;;;11.75;4.70;;;5.50;99.90;;;;;;5068638;28;20064;-71
2023/10/17 03:27:03;;;;;;;6.97;4.00;;;5.50;99.90;;;;;;5070229;28;20052;-70
2023/10/17 03:29:34;;;;;;;8.27;4.50;;;5.40;99.90;;;;;;5070729;28;20068;-70
2023/10/17 03:32:04;;;;;;;7.50;4.13;;;5.50;99.90;;;;;;5070844;28;20052;-70
2023/10/17 03:34:35;;;;;;;7.75;4.60;;;5.40;99.90;;;;;;5070387;28;20065;-70
2023/10/17 03:37:26;;;;;;;9.77;4.75;;;5.40;99.90;;;;;;5071088;28;20139;-70
2023/10/17 03:39:55;;;;;;;8.18;4.35;;;5.40;99.90;;;;;;5071255;28;20518;-70
2023/10/17 03:42:31;;;;;;;7.10;4.47;;;5.40;99.90;;;;;;5070990;28;20140;-70
2023/10/17 03:44:58;;;;;;;7.20;4.28;;;5.40;99.90;;;;;;5064367;28;20048;-70
2023/10/17 03:47:26;;;;;;;6.55;4.13;;;5.60;99.90;;;;;;5068366;28;20082;-70
2023/10/17 03:49:56;;;;;;;10.95;4.50;;;5.50;99.90;;;;;;5065996;28;20040;-70
2023/10/17 03:52:23;;;;;;;9.35;4.80;;;5.50;99.90;;;;;;5071225;28;20415;-71
2023/10/17 03:54:50;;;;;;;6.13;4.60;;;5.60;99.90;;;;;;5068071;28;20139;-70
2023/10/17 03:57:17;;;;;;;6.95;4.65;;;5.60;99.90;;;;;;5069532;28;20072;-70
2023/10/17 03:59:51;;;;;;;11.27;4.25;;;5.70;99.90;;;;;;5069789;28;20520;-69
2023/10/17 04:02:19;;;;;;;8.60;4.68;;;5.80;99.90;;;;;;5069298;28;20052;-70
2023/10/17 04:04:52;;;;;;;11.77;4.35;;;5.90;99.90;;;;;;5069307;28;20095;-70
2023/10/17 04:07:22;;;;;;;9.35;4.78;;;5.90;99.90;;;;;;5068864;28;20052;-70
2023/10/17 04:09:54;;;;;;;8.23;4.07;;;6.00;99.90;;;;;;5068670;28;20048;-68
2023/10/17 04:12:25;;;;;;;6.82;4.57;;;6.00;99.90;;;;;;5068042;28;20055;-69
2023/10/17 04:14:58;;;;;;;9.02;5.95;;;6.10;99.90;;;;;;5069439;28;20110;-70
2023/10/17 04:17:29;;;;;;;9.93;5.53;;;6.10;99.90;;;;;;5078511;28;20058;-69
2023/10/17 04:20:09;;;;;;;10.98;5.95;;;6.20;99.90;;;;;;5081453;28;20045;-68
2023/10/17 04:22:38;;;;;;;6.35;5.05;;;6.20;99.90;;;;;;5072946;28;20057;-71
2023/10/17 04:25:19;;;;;;;8.15;5.60;;;6.30;99.90;;;;;;5069012;28;20052;-69
2023/10/17 04:27:47;;;;;;;11.35;5.30;;;6.30;99.90;;;;;;5071998;28;20048;-71
2023/10/17 04:30:21;;;;;;;9.43;4.75;;;6.30;99.90;;;;;;5073096;28;20098;-71
2023/10/17 04:32:50;;;;;;;8.43;5.65;;;6.40;99.90;;;;;;5073507;28;20048;-71
2023/10/17 04:35:20;;;;;;;7.85;5.55;;;6.40;99.90;;;;;;5073588;28;20046;-70
2023/10/17 04:38:09;;;;;;;10.43;5.65;;;6.40;99.90;;;;;;5071030;28;20430;-70
2023/10/17 04:40:42;;;;;;;12.20;5.72;;;6.40;99.90;;;;;;5071042;28;20119;-69
2023/10/17 04:45:56;;;;;;;9.13;5.22;;;6.30;99.90;;;;;;5070838;28;20159;-69
2023/10/17 04:48:32;;;;;;;6.95;4.70;;;6.40;99.90;;;;;;5071552;28;20094;-70
2023/10/17 04:51:11;;;;;;;11.80;5.50;;;6.40;99.90;;;;;;5071270;28;20389;-69
2023/10/17 04:53:47;;;;;;;8.98;5.60;;;6.40;99.90;;;;;;5070254;28;20041;-70
2023/10/17 04:56:16;;;;;;;6.65;5.05;;;6.40;99.90;;;;;;5070998;28;20060;-67
2023/10/17 04:58:48;;;;;;;6.80;5.43;;;6.40;99.90;;;;;;5070004;28;20056;-68
2023/10/17 05:04:02;;;;;;;9.55;6.05;;;6.50;99.90;;;;;;5071329;28;20040;-69
2023/10/17 06:16:49;;;;;;;8.60;5.40;;;6.60;99.90;;;;;;5069166;28;20047;-67
2023/10/17 06:18:40;;;;;;;9.27;4.75;;;7.30;99.90;;;;;;5021994;28;20071;-67
2023/10/17 06:21:07;;;;;;;8.43;6.15;;;7.30;99.90;;;;;;5070481;28;20054;-69
2023/10/17 06:32:04;;;;;;;9.02;6.25;;;7.50;99.90;;;;;;5069826;28;20052;-68
2023/10/17 06:34:31;;;;;;;8.00;5.40;;;7.50;99.90;;;;;;5069965;28;20048;-69
2023/10/17 06:36:59;;;;;;;8.38;5.78;;;7.60;99.90;;;;;;5070815;28;20496;-70
2023/10/17 06:39:36;;;;;;;12.13;5.45;;;7.60;99.90;;;;;;5071279;28;20044;-69
2023/10/17 06:42:14;;;;;;;7.93;4.85;;;7.70;99.90;;;;;;5071027;28;20051;-69
2023/10/17 06:44:52;;;;;;;11.75;5.68;;;7.70;99.90;;;;;;5068596;28;20500;-69
2023/10/17 06:47:31;;;;;;;9.77;5.95;;;7.80;99.90;;;;;;5071151;28;20041;-69
2023/10/17 06:53:02;;;;;;;8.75;5.13;;;7.90;99.90;;;;;;5013371;28;20052;-68
2023/10/17 06:55:29;;;;;;;9.00;5.38;;;8.00;99.90;;;;;;5059916;28;20510;-68
2023/10/17 06:58:08;;;;;;;10.40;5.22;;;8.10;99.90;;;;;;5070087;28;20098;-68
2023/10/17 07:00:43;;;;;;;7.53;5.18;;;8.10;99.90;;;;;;5070927;28;20068;-69
2023/10/17 07:03:14;;;;;;;8.60;4.88;;;8.20;99.90;;;;;;5070031;28;20055;-69
2023/10/17 07:05:49;;;;;;;7.32;3.90;;;8.30;99.90;;;;;;5070576;28;20055;-68
2023/10/17 07:08:19;;;;;;;10.05;4.45;;;8.40;99.90;;;;;;5071919;28;20052;-69
2023/10/17 07:10:59;;;;;;;6.32;3.83;;;8.40;99.90;;;;;;5068562;28;20048;-70
2023/10/17 07:13:55;;;;;;;7.68;3.67;;;8.50;99.90;;;;;;5070598;28;20059;-69
2023/10/17 07:16:33;;;;;;;7.80;4.28;;;8.60;99.90;;;;;;5070670;28;20516;-70
2023/10/17 07:19:46;;;;;;;7.22;3.85;;;8.60;99.90;;;;;;5070048;28;20113;-69
2023/10/17 07:22:05;;;;;;;9.93;5.18;;;8.80;99.90;;;;;;5069786;28;20484;-69
2023/10/17 07:24:34;;;;;;;6.90;4.13;;;8.80;99.90;;;;;;5070654;28;20045;-69
2023/10/17 07:27:03;;;;;;;8.70;4.47;;;9.00;99.90;;;;;;5069799;28;20110;-70
2023/10/17 07:29:33;;;;;;;6.95;4.03;;;9.00;99.90;;;;;;5070371;28;20283;-70
2023/10/17 07:32:09;;;;;;;6.18;3.42;;;9.10;99.90;;;;;;5068045;28;20131;-70
2023/10/17 07:34:38;;;;;;;9.68;3.25;;;9.20;99.90;;;;;;5071579;28;20127;-69
2023/10/17 07:40:15;;;;;;;8.50;3.03;;;9.40;99.90;;;;;;5069693;28;20409;-68
2023/10/17 07:42:45;;;;;;;8.00;2.78;;;9.40;99.90;;;;;;5070436;28;20126;-69
2023/10/17 07:45:15;;;;;;;12.10;2.47;;;9.50;99.90;;;;;;5068321;28;20135;-68
2023/10/17 07:47:42;;;;;;;6.15;2.53;;;9.50;99.90;;;;;;5069799;28;20052;-69
2023/10/17 07:50:14;;;;;;;10.38;2.97;;;9.60;99.90;;;;;;5070014;28;20078;-69
2023/10/17 07:52:43;;;;;;;6.57;3.22;;;9.60;99.90;;;;;;5070304;28;20055;-69
2023/10/17 07:55:23;;;;;;;7.88;3.70;;;9.50;99.90;;;;;;5069756;28;20094;-70
2023/10/17 07:57:52;;;;;;;6.38;3.25;;;9.40;99.90;;;;;;5069733;28;20044;-70
2023/10/17 08:00:27;;;;;;;7.10;4.15;;;9.40;99.90;;;;;;5071066;28;20067;-69
2023/10/17 08:02:54;;;;;;;5.88;3.58;;;9.40;99.90;;;;;;5074310;28;20155;-70
2023/10/17 08:05:25;;;;;;;9.05;3.58;;;9.50;99.90;;;;;;5074002;28;20089;-68
2023/10/17 08:08:03;;;;;;;7.68;3.83;;;9.50;99.90;;;;;;5071669;28;20044;-68
2023/10/17 08:10:35;;;;;;;5.65;3.25;;;10.80;99.90;;;;;;5073940;28;20041;-68
2023/10/17 08:13:02;;;;;;;5.82;3.05;;;12.70;99.90;;;;;;5073759;28;20488;-69
2023/10/17 08:15:38;;;;;;;6.57;3.28;;;14.30;99.90;;;;;;5073448;28;20381;-68
2023/10/17 08:18:14;;;;;;;7.05;3.10;;;15.10;99.90;;;;;;5073605;28;20052;-67
2023/10/17 08:21:33;;;;;;;9.35;4.03;;;14.60;99.90;;;;;;5073832;28;20056;-68
2023/10/17 08:23:41;;;;;;;8.15;3.55;;;13.90;99.90;;;;;;5072843;28;20049;-68
2023/10/17 08:26:11;;;;;;;7.50;3.38;;;13.60;99.90;;;;;;5074639;28;20110;-69
2023/10/17 08:28:46;;;;;;;7.55;3.60;;;13.50;99.90;;;;;;5072982;28;20060;-68
2023/10/17 08:31:22;;;;;;;10.40;4.20;;;13.40;99.90;;;;;;5073432;28;20048;-67
2023/10/17 08:33:57;;;;;;;10.52;3.72;;;13.50;99.90;;;;;;5074633;28;20056;-68
2023/10/17 08:36:28;;;;;;;8.77;3.53;;;14.70;99.90;;;;;;5072820;28;20048;-69
2023/10/17 08:38:58;;;;;;;6.30;3.65;;;16.40;99.90;;;;;;5073261;28;20131;-69
2023/10/17 08:41:25;;;;;;;;;;;18.00;99.90;;;;;;5072160;28;20554;-69
2023/10/17 08:43:54;;;;;;;4.03;2.40;;;19.00;99.90;;;;;;5072565;28;19961;-69
2023/10/17 08:46:22;;;;;;;5.05;2.47;;;19.90;99.90;;;;;;5073534;28;20052;-69
2023/10/17 08:48:49;;;;;;;5.53;2.50;;;20.90;99.90;;;;;;5071159;28;20119;-69
2023/10/17 08:51:18;;;;;;;5.72;2.40;;;22.00;99.90;;;;;;5072420;28;20064;-68
2023/10/17 08:53:47;;;;;;;6.00;1.95;;;22.50;98.00;;;;;;5072625;28;20558;-69
2023/10/17 08:56:19;;;;;;;4.05;2.15;;;23.10;96.80;;;;;;5072666;28;20114;-69
2023/10/17 08:58:46;;;;;;;5.22;1.90;;;23.60;94.90;;;;;;5072616;28;20095;-69
2023/10/17 09:01:16;;;;;;;6.82;1.95;;;23.50;93.40;;;;;;5073242;28;20049;-69
2023/10/17 09:03:46;;;;;;;8.88;1.83;;;24.30;92.80;;;;;;5070176;28;20048;-69
2023/10/17 09:06:39;;;;;;;4.50;1.60;;;24.20;91.20;;;;;;5073000;28;20056;-69
2023/10/17 09:09:22;;;;;;;2.72;1.48;;;24.20;90.80;;;;;;5072652;28;20059;-69
2023/10/17 09:12:19;;;;;;;5.43;1.60;;;24.40;82.10;;;;;;5071695;28;20540;-69
2023/10/17 09:14:48;;;;;;;3.65;1.38;;;24.70;83.70;;;;;;5072959;28;20484;-69
2023/10/17 09:17:20;;;;;;;3.38;1.30;;;24.40;86.60;;;;;;5071075;28;20073;-70
2023/10/17 09:19:50;;;;;;;4.50;1.48;;;24.60;84.50;;;;;;5072414;28;20048;-69
2023/10/17 09:22:36;;;;;;;3.00;1.10;;;25.40;84.90;;;;;;5072460;28;20139;-70
2023/10/17 09:25:15;;;;;;;4.43;1.42;;;25.30;82.00;;;;;;5071357;28;20067;-70
2023/10/17 09:27:44;;;;;;;5.28;1.30;;;25.30;79.20;;;;;;5072666;28;20083;-68
2023/10/17 09:30:12;;;;;;;6.07;1.98;;;25.30;80.70;;;;;;5072601;28;20519;-69
2023/10/17 09:32:40;;;;;;;2.60;0.95;;;25.00;78.10;;;;;;5070014;28;20048;-69
2023/10/17 09:35:12;;;;;;;3.00;1.00;;;25.30;78.90;;;;;;5072513;28;20083;-69
2023/10/17 09:37:41;;;;;;;4.07;1.48;;;24.90;77.10;;;;;;5072481;28;20054;-69
2023/10/17 09:40:12;;;;;;;4.82;1.50;;;24.90;77.10;;;;;;5069963;28;20053;-69
2023/10/17 09:42:44;;;;;;;5.45;1.40;;;25.10;77.60;;;;;;5072290;28;20127;-69
2023/10/17 09:45:12;;;;;;;4.45;1.60;;;25.30;77.70;;;;;;5072473;28;20052;-67
2023/10/17 09:47:44;;;;;;;4.22;1.30;;;25.00;77.30;;;;;;5071531;28;20075;-68
2023/10/17 09:50:14;;;;;;;3.67;1.10;;;25.30;78.40;;;;;;5071930;28;20115;-69
2023/10/17 09:52:41;;;;;;;3.53;1.02;;;25.30;78.00;;;;;;5070936;28;20072;-69
2023/10/17 09:55:15;;;;;;;5.35;1.27;;;25.00;76.80;;;;;;5071391;28;20519;-68
2023/10/17 09:57:50;;;;;;;9.70;1.83;;;25.60;74.80;;;;;;5071735;28;20052;-69
2023/10/17 10:00:30;;;;;;;6.05;1.70;;;25.60;74.20;;;;;;5069479;28;20080;-69
2023/10/17 10:02:57;;;;;;;;;;;25.60;75.10;;;;;;5071772;28;20063;-69
2023/10/17 10:05:28;;;;;;;3.20;1.02;;;25.00;71.90;;;;;;5071329;28;19929;-69
2023/10/17 10:07:55;;;;;;;6.75;1.85;;;25.20;75.10;;;;;;5070699;28;20159;-70
2023/10/17 10:10:51;;;;;;;4.00;1.30;;;25.60;73.50;;;;;;5071451;28;20055;-69
2023/10/17 10:13:20;;;;;;;4.22;1.30;;;26.30;72.40;;;;;;5071293;28;20067;-69
2023/10/17 10:15:54;;;;;;;4.93;1.23;;;26.20;73.00;;;;;;5071780;28;20094;-69
2023/10/17 10:18:54;;;;;;;4.25;1.00;;;26.50;71.70;;;;;;5071377;28;20059;-69
2023/10/17 10:21:43;;;;;;;1.85;0.75;;;26.30;69.20;;;;;;5070889;28;20047;-69
2023/10/17 10:24:14;;;;;;;;;;;26.80;71.60;;;;;;5070206;28;20051;-68
2023/10/17 10:26:40;;;;;;;6.60;1.00;;;26.50;71.20;;;;;;5068458;28;19931;-69
2023/10/17 10:29:23;;;;;;;2.85;1.10;;;27.10;71.50;;;;;;5063784;28;20049;-68
2023/10/17 10:31:52;;;;;;;4.20;1.38;;;26.80;68.90;;;;;;5067265;28;20040;-68
2023/10/17 10:34:20;;;;;;;2.63;1.10;;;25.30;70.80;;;;;;5066174;28;20053;-70
2023/10/17 10:36:48;;;;;;;3.20;1.15;;;26.50;71.30;;;;;;5069345;28;20289;-70
2023/10/17 10:39:18;;;;;;;2.63;1.20;;;26.10;71.30;;;;;;5070709;28;20090;-70
2023/10/17 10:41:59;;;;;;;2.95;1.20;;;26.50;70.90;;;;;;5070775;28;20044;-69
2023/10/17 10:44:27;;;;;;;4.05;1.48;;;26.50;68.80;;;;;;5066353;28;20463;-68
2023/10/17 10:46:54;;;;;;;5.47;1.30;;;26.70;70.60;;;;;;5068480;28;20099;-69
2023/10/17 10:49:28;;;;;;;4.05;1.30;;;26.70;70.00;;;;;;5067674;28;20052;-69
2023/10/17 10:51:57;;;;;;;2.75;1.00;;;26.50;68.60;;;;;;5069985;28;20055;-69
2023/10/17 10:54:25;;;;;;;2.60;1.15;;;26.40;69.60;;;;;;5069950;28;20067;-68
2023/10/17 10:56:52;;;;;;;5.95;1.10;;;26.00;68.90;;;;;;5069389;28;20053;-69
2023/10/17 10:59:23;;;;;;;2.83;1.20;;;25.80;69.00;;;;;;5069726;28;20106;-69
2023/10/17 11:01:51;;;;;;;4.03;1.15;;;26.70;69.10;;;;;;5070128;28;20041;-69
2023/10/17 11:04:18;;;;;;;3.45;1.33;;;26.90;69.50;;;;;;5070312;28;20044;-69
2023/10/17 11:06:47;;;;;;;3.15;1.30;;;26.80;69.80;;;;;;5066613;28;20667;-69
2023/10/17 11:09:24;;;;;;;5.35;1.38;;;26.90;69.10;;;;;;5069713;28;20051;-69
2023/10/17 11:11:53;;;;;;;5.35;1.50;;;26.50;66.50;;;;;;5068932;28;20803;-69
2023/10/17 11:14:21;;;;;;;12.05;3.45;;;26.30;67.90;;;;;;5070299;28;20088;-69
2023/10/17 11:16:50;;;;;;;11.77;4.00;;;26.10;67.80;;;;;;5070525;28;20127;-69
2023/10/17 11:19:22;;;;;;;5.82;1.80;;;26.10;67.90;;;;;;5069586;28;20102;-70
2023/10/17 11:21:55;;;;;;;11.30;3.58;;;26.10;68.00;;;;;;5070231;28;20040;-69
2023/10/17 11:24:25;;;;;;;3.17;0.98;;;26.00;67.90;;;;;;5069757;28;20041;-68
2023/10/17 11:26:53;;;;;;;;;;;25.80;68.10;;;;;;5071016;28;20067;-69
2023/10/17 11:29:25;;;;;;;4.03;1.20;;;26.20;67.50;;;;;;5070476;28;19920;-68
2023/10/17 11:31:52;;;;;;;5.45;1.55;;;26.20;68.60;;;;;;5069861;28;20072;-69
2023/10/17 11:34:31;;;;;;;3.25;1.00;;;26.20;67.90;;;;;;5068202;28;20060;-69
2023/10/17 11:37:03;;;;;;;2.17;1.13;;;26.10;67.20;;;;;;5070647;28;20136;-69
2023/10/17 11:39:39;;;;;;;3.47;0.93;;;26.50;67.60;;;;;;5071300;28;20461;-68
2023/10/17 11:42:06;;;;;;;3.72;1.33;;;25.90;68.00;;;;;;5068717;28;20094;-69
2023/10/17 11:44:33;;;;;;;4.38;0.93;;;25.80;69.10;;;;;;5070104;28;20047;-69
2023/10/17 11:47:02;;;;;;;3.80;1.10;;;25.20;69.60;;;;;;5069883;28;20048;-69
2023/10/17 11:49:35;;;;;;;1.80;0.93;;;25.70;69.60;;;;;;5070501;28;20052;-69
2023/10/17 11:52:04;;;;;;;4.72;1.20;;;25.70;68.40;;;;;;5070164;28;20051;-68
2023/10/17 11:54:31;;;;;;;3.10;0.95;;;26.50;68.70;;;;;;5069881;28;20060;-68
2023/10/17 11:57:11;;;;;;;2.55;1.30;;;25.80;68.30;;;;;;5070366;28;20094;-70
2023/10/17 11:59:38;;;;;;;2.10;0.95;;;26.10;68.00;;;;;;5069711;28;20132;-69
2023/10/17 12:02:05;;;;;;;4.93;1.10;;;26.90;67.40;;;;;;5071512;28;20044;-69
2023/10/17 12:04:33;;;;;;;2.67;1.20;;;26.50;66.10;;;;;;5070316;28;20135;-68
2023/10/17 12:07:00;;;;;;;3.27;1.07;;;26.50;66.10;;;;;;5069985;28;20136;-69
2023/10/17 12:09:27;;;;;;;2.70;1.17;;;25.80;66.90;;;;;;5070137;28;20048;-69
2023/10/17 12:11:56;;;;;;;3.03;0.82;;;26.20;66.50;;;;;;5070351;28;20163;-69
2023/10/17 12:14:23;;;;;;;1.70;0.90;;;26.20;66.80;;;;;;5067664;28;20048;-69
2023/10/17 12:16:54;;;;;;;2.33;1.00;;;26.00;67.00;;;;;;5070159;28;20056;-68
2023/10/17 12:19:21;;;;;;;4.18;1.15;;;26.20;67.40;;;;;;5071289;28;20124;-69
2023/10/17 12:21:49;;;;;;;3.10;1.00;;;26.50;67.00;;;;;;5067432;28;20110;-69
2023/10/17 12:24:19;;;;;;;4.43;1.40;;;26.70;66.80;;;;;;5070022;28;20109;-68
2023/10/17 12:26:46;;;;;;;;;;;26.70;65.90;;;;;;5070406;28;20040;-68
2023/10/17 12:29:14;;;;;;;2.85;1.02;;;25.70;66.30;;;;;;5069395;28;20422;-69
2023/10/17 12:31:41;;;;;;;2.53;1.13;;;25.90;66.80;;;;;;5071180;28;20048;-69
2023/10/17 12:34:08;;;;;;;3.75;1.48;;;26.50;67.40;;;;;;5069900;28;20044;-68
2023/10/17 12:36:36;;;;;;;4.63;1.13;;;26.50;66.70;;;;;;5069496;28;20143;-69
2023/10/17 12:39:07;;;;;;;2.47;1.20;;;26.30;66.90;;;;;;5070146;28;20131;-69
2023/10/17 12:41:34;;;;;;;3.38;1.20;;;26.70;66.60;;;;;;5069262;28;20135;-69
2023/10/17 12:44:02;;;;;;;3.28;1.00;;;26.30;66.90;;;;;;5070060;28;20049;-69
2023/10/17 12:46:29;;;;;;;2.35;0.90;;;26.30;67.40;;;;;;5070902;28;20451;-68
2023/10/17 12:48:56;;;;;;;4.45;1.48;;;26.20;67.60;;;;;;5072936;28;20049;-69
2023/10/17 12:51:23;;;;;;;4.90;1.20;;;25.90;66.70;;;;;;5073088;28;20090;-69
2023/10/17 12:53:52;;;;;;;2.45;1.10;;;26.10;66.70;;;;;;5073248;28;20052;-69
2023/10/17 12:56:21;;;;;;;3.90;1.25;;;25.60;66.90;;;;;;5070371;28;20049;-69
2023/10/17 12:58:48;;;;;;;3.78;1.13;;;26.10;67.00;;;;;;5073235;28;20056;-69
2023/10/17 13:01:15;;;;;;;2.78;1.17;;;25.70;66.60;;;;;;5073228;28;20118;-69
2023/10/17 13:03:42;;;;;;;2.60;1.45;;;25.50;68.40;;;;;;5072621;28;20624;-68
2023/10/17 13:06:09;;;;;;;2.75;1.20;;;26.30;67.50;;;;;;5074006;28;20098;-69
2023/10/17 13:08:36;;;;;;;4.65;1.30;;;25.70;66.40;;;;;;5072939;28;20124;-69
2023/10/17 13:11:03;;;;;;;3.42;1.20;;;26.10;67.50;;;;;;5072592;28;20078;-70
2023/10/17 13:13:32;;;;;;;2.60;1.40;;;26.40;66.60;;;;;;5070058;28;20047;-69
2023/10/17 13:15:59;;;;;;;6.20;1.30;;;25.30;66.50;;;;;;5072699;28;20052;-68
2023/10/17 13:18:28;;;;;;;2.70;1.13;;;25.10;68.50;;;;;;5072216;28;20080;-69
2023/10/17 13:20:58;;;;;;;3.85;1.52;;;25.20;69.60;;;;;;5072643;28;20139;-68
2023/10/17 13:23:25;;;;;;;2.30;1.02;;;25.30;70.10;;;;;;5072619;28;20052;-69
2023/10/17 13:25:53;;;;;;;3.55;1.38;;;24.60;68.80;;;;;;5070095;28;20044;-69
2023/10/17 13:28:21;;;;;;;5.07;1.25;;;24.20;67.60;;;;;;5072281;28;20106;-68
2023/10/17 13:30:49;;;;;;;3.42;1.63;;;24.10;68.30;;;;;;5069758;28;20048;-69
2023/10/17 13:33:20;;;;;;;4.43;1.05;;;24.30;69.40;;;;;;5072122;28;20052;-69
2023/10/17 13:35:48;;;;;;;4.22;1.10;;;24.70;69.40;;;;;;5072090;28;20081;-69
2023/10/17 13:38:16;;;;;;;2.65;1.20;;;24.70;69.10;;;;;;5071407;28;20041;-69
2023/10/17 13:40:43;;;;;;;3.70;1.38;;;25.20;68.70;;;;;;5072087;28;20413;-69
2023/10/17 13:43:13;;;;;;;4.15;1.50;;;25.10;68.10;;;;;;5073128;28;20091;-68
2023/10/17 13:45:41;;;;;;;2.80;1.08;;;25.90;67.40;;;;;;5071780;28;20044;-69
2023/10/17 13:48:09;;;;;;;2.78;1.20;;;25.40;67.30;;;;;;5072275;28;20052;-69
2023/10/17 13:50:37;;;;;;;2.58;1.17;;;25.90;66.20;;;;;;5072037;28;20451;-69
2023/10/17 13:53:08;;;;;;;2.85;1.00;;;25.60;65.60;;;;;;5071439;28;20048;-68
2023/10/17 13:55:36;;;;;;;2.72;1.05;;;25.20;66.60;;;;;;5073165;28;20408;-69
2023/10/17 13:58:04;;;;;;;3.47;1.10;;;25.00;66.60;;;;;;5069762;28;20048;-69
2023/10/17 14:00:42;;;;;;;3.15;1.02;;;25.30;67.10;;;;;;5071118;28;20056;-68
2023/10/17 14:03:12;;;;;;;1.38;0.70;;;25.10;67.30;;;;;;5071808;28;20049;-69
2023/10/17 14:05:42;;;;;;;2.60;1.17;;;25.30;67.30;;;;;;5071972;28;20127;-68
2023/10/17 14:08:10;;;;;;;1.98;0.88;;;24.80;68.10;;;;;;5071531;28;20049;-69
2023/10/17 14:10:37;;;;;;;3.05;1.17;;;24.00;67.90;;;;;;5071758;28;20052;-68
2023/10/17 14:13:08;;;;;;;2.67;0.90;;;23.90;68.90;;;;;;5071050;28;20059;-68
2023/10/17 14:15:35;;;;;;;5.13;1.08;;;24.50;67.60;;;;;;5071899;28;20098;-68
2023/10/17 14:18:09;;;;;;;5.10;1.05;;;24.30;67.70;;;;;;5071584;28;20127;-68
2023/10/17 14:20:40;;;;;;;2.47;1.05;;;24.10;67.30;;;;;;5071305;28;20133;-68
2023/10/17 14:23:11;;;;;;;3.25;0.98;;;23.50;68.10;;;;;;5071429;28;20057;-69
2023/10/17 14:28:23;;;;;;;2.28;0.90;;;22.90;70.00;;;;;;5071082;28;20048;-68
2023/10/17 14:30:52;;;;;;;3.00;1.00;;;22.70;69.80;;;;;;5072459;28;20381;-69
2023/10/17 14:33:19;;;;;;;2.22;0.77;;;22.80;69.80;;;;;;5071283;28;20048;-68
2023/10/17 14:35:48;;;;;;;5.18;1.55;;;22.80;69.90;;;;;;5072156;28;20141;-68
2023/10/17 14:38:16;;;;;;;2.73;0.97;;;22.70;70.20;;;;;;5071323;28;20049;-68
2023/10/17 14:40:43;;;;;;;2.40;0.98;;;22.30;70.90;;;;;;5051398;28;20056;-69
2023/10/17 14:43:12;;;;;;;2.95;0.90;;;22.00;71.10;;;;;;5059892;28;20052;-68
2023/10/17 14:45:40;;;;;;;4.57;1.10;;;22.20;71.30;;;;;;5071298;28;20056;-69